sensor_id;sensor_type;location;lat;lon;timestamp;pressure;altitude;pressure_sealevel;temperature;humidity
11049;BME280;5577;42.706;23.160;2023-04-23T00:01:51;94100.69;;;5.81;100.00
11049;BME280;5577;42.706;23.160;2023-04-23T00:04:36;94101.47;;;5.81;100.00
11049;BME280;5577;42.706;23.160;2023-04-23T00:07:20;94106.53;;;5.78;100.00
11049;BME280;5577;42.706;23.160;2023-04-23T00:10:05;94105.16;;;5.72;100.00
11049;BME280;5577;42.706;23.160;2023-04-23T00:12:51;94105.13;;;5.80;100.00
11049;BME280;5577;42.706;23.160;2023-04-23T00:15:36;94108.06;;;5.79;100.00
11049;BME280;5577;42.706;23.160;2023-04-23T00:18:20;94114.88;;;5.88;100.00
11049;BME280;5577;42.706;23.160;2023-04-23T00:21:05;94104.44;;;5.63;100.00
11049;BME280;5577;42.706;23.160;2023-04-23T00:23:49;94111.81;;;5.69;100.00
11049;BME280;5577;42.706;23.160;2023-04-23T00:26:33;94105.66;;;5.65;100.00
11049;BME280;5577;42.706;23.160;2023-04-23T00:29:17;94105.34;;;5.67;100.00
11049;BME280;5577;42.706;23.160;2023-04-23T00:32:01;94102.88;;;5.62;100.00
11049;BME280;5577;42.706;23.160;2023-04-23T00:34:46;94103.50;;;5.67;100.00
11049;BME280;5577;42.706;23.160;2023-04-23T00:37:32;94105.19;;;5.63;100.00
11049;BME280;5577;42.706;23.160;2023-04-23T00:40:16;94105.50;;;5.62;100.00
11049;BME280;5577;42.706;23.160;2023-04-23T00:43:00;94113.56;;;5.57;100.00
11049;BME280;5577;42.706;23.160;2023-04-23T00:45:45;94111.91;;;5.44;100.00
11049;BME280;5577;42.706;23.160;2023-04-23T00:48:29;94117.69;;;5.20;100.00
11049;BME280;5577;42.706;23.160;2023-04-23T00:51:15;94055.13;;;4.76;100.00
11049;BME280;5577;42.706;23.160;2023-04-23T00:54:00;94116.16;;;5.11;100.00
11049;BME280;5577;42.706;23.160;2023-04-23T00:56:44;94109.19;;;5.15;100.00
11049;BME280;5577;42.706;23.160;2023-04-23T00:59:29;94123.84;;;5.16;100.00
11049;BME280;5577;42.706;23.160;2023-04-23T01:02:15;94099.81;;;5.05;100.00
11049;BME280;5577;42.706;23.160;2023-04-23T01:05:00;94106.56;;;5.15;100.00
11049;BME280;5577;42.706;23.160;2023-04-23T01:07:45;94101.63;;;5.13;100.00
11049;BME280;5577;42.706;23.160;2023-04-23T01:10:30;94112.28;;;5.17;100.00
11049;BME280;5577;42.706;23.160;2023-04-23T01:13:15;94111.19;;;5.18;100.00
11049;BME280;5577;42.706;23.160;2023-04-23T01:15:59;94111.81;;;5.15;100.00
11049;BME280;5577;42.706;23.160;2023-04-23T01:18:43;94115.22;;;5.15;100.00
11049;BME280;5577;42.706;23.160;2023-04-23T01:21:28;94107.69;;;5.05;100.00
11049;BME280;5577;42.706;23.160;2023-04-23T01:24:12;94106.28;;;4.99;100.00
11049;BME280;5577;42.706;23.160;2023-04-23T01:26:56;94106.16;;;4.96;100.00
11049;BME280;5577;42.706;23.160;2023-04-23T01:29:41;94101.53;;;4.84;100.00
11049;BME280;5577;42.706;23.160;2023-04-23T01:32:25;94107.25;;;4.69;100.00
11049;BME280;5577;42.706;23.160;2023-04-23T01:35:10;94062.69;;;4.44;100.00
11049;BME280;5577;42.706;23.160;2023-04-23T01:37:56;94070.88;;;4.51;100.00
11049;BME280;5577;42.706;23.160;2023-04-23T01:40:42;94063.13;;;4.37;100.00
11049;BME280;5577;42.706;23.160;2023-04-23T01:43:27;94068.38;;;4.46;100.00
11049;BME280;5577;42.706;23.160;2023-04-23T01:46:11;94107.09;;;4.74;100.00
11049;BME280;5577;42.706;23.160;2023-04-23T01:48:56;94114.47;;;4.81;100.00
11049;BME280;5577;42.706;23.160;2023-04-23T01:51:41;94113.25;;;4.78;100.00
11049;BME280;5577;42.706;23.160;2023-04-23T01:54:25;94111.09;;;4.80;100.00
11049;BME280;5577;42.706;23.160;2023-04-23T01:57:10;94117.75;;;4.78;100.00
11049;BME280;5577;42.706;23.160;2023-04-23T02:00:20;94117.56;;;4.83;100.00
11049;BME280;5577;42.706;23.160;2023-04-23T02:03:05;94049.41;;;4.32;100.00
11049;BME280;5577;42.706;23.160;2023-04-23T02:05:49;94114.03;;;4.70;100.00
11049;BME280;5577;42.706;23.160;2023-04-23T02:08:34;94118.66;;;4.82;100.00
11049;BME280;5577;42.706;23.160;2023-04-23T02:11:18;94125.28;;;4.79;100.00
11049;BME280;5577;42.706;23.160;2023-04-23T02:14:04;94125.75;;;4.81;100.00
11049;BME280;5577;42.706;23.160;2023-04-23T02:16:48;94122.34;;;4.81;100.00
11049;BME280;5577;42.706;23.160;2023-04-23T02:19:34;94067.75;;;4.40;100.00
11049;BME280;5577;42.706;23.160;2023-04-23T02:22:18;94124.22;;;4.63;100.00
11049;BME280;5577;42.706;23.160;2023-04-23T02:25:03;94110.63;;;4.61;100.00
11049;BME280;5577;42.706;23.160;2023-04-23T02:27:48;94120.69;;;4.68;100.00
11049;BME280;5577;42.706;23.160;2023-04-23T02:30:35;94128.06;;;4.74;100.00
11049;BME280;5577;42.706;23.160;2023-04-23T02:33:19;94121.72;;;4.58;100.00
11049;BME280;5577;42.706;23.160;2023-04-23T02:36:04;94109.88;;;4.61;100.00
11049;BME280;5577;42.706;23.160;2023-04-23T02:38:48;94117.88;;;4.56;100.00
11049;BME280;5577;42.706;23.160;2023-04-23T02:41:33;94043.56;;;4.01;100.00
11049;BME280;5577;42.706;23.160;2023-04-23T02:44:17;94120.50;;;4.56;100.00
11049;BME280;5577;42.706;23.160;2023-04-23T02:47:01;94064.06;;;4.07;100.00
11049;BME280;5577;42.706;23.160;2023-04-23T02:49:46;94128.03;;;4.32;100.00
11049;BME280;5577;42.706;23.160;2023-04-23T02:52:29;94127.25;;;4.23;100.00
11049;BME280;5577;42.706;23.160;2023-04-23T02:55:13;94123.09;;;4.22;100.00
11049;BME280;5577;42.706;23.160;2023-04-23T02:57:58;94122.03;;;4.23;100.00
11049;BME280;5577;42.706;23.160;2023-04-23T03:00:42;94126.66;;;4.34;100.00
11049;BME280;5577;42.706;23.160;2023-04-23T03:03:28;94136.66;;;4.24;100.00
11049;BME280;5577;42.706;23.160;2023-04-23T03:06:14;94139.47;;;4.36;100.00
11049;BME280;5577;42.706;23.160;2023-04-23T03:08:58;94059.22;;;3.75;100.00
11049;BME280;5577;42.706;23.160;2023-04-23T03:11:42;94138.22;;;4.33;100.00
11049;BME280;5577;42.706;23.160;2023-04-23T03:14:26;94137.44;;;4.33;100.00
11049;BME280;5577;42.706;23.160;2023-04-23T03:17:10;94136.97;;;4.31;100.00
11049;BME280;5577;42.706;23.160;2023-04-23T03:19:54;94140.19;;;4.19;100.00
11049;BME280;5577;42.706;23.160;2023-04-23T03:22:38;94132.63;;;4.18;100.00
11049;BME280;5577;42.706;23.160;2023-04-23T03:25:22;94144.38;;;4.20;100.00
11049;BME280;5577;42.706;23.160;2023-04-23T03:28:08;94148.25;;;4.31;100.00
11049;BME280;5577;42.706;23.160;2023-04-23T03:30:52;94142.53;;;4.38;100.00
11049;BME280;5577;42.706;23.160;2023-04-23T03:33:36;94138.06;;;4.38;100.00
11049;BME280;5577;42.706;23.160;2023-04-23T03:36:20;94135.00;;;4.45;100.00
11049;BME280;5577;42.706;23.160;2023-04-23T03:39:04;94143.34;;;4.55;100.00
11049;BME280;5577;42.706;23.160;2023-04-23T03:41:48;94134.53;;;4.60;100.00
11049;BME280;5577;42.706;23.160;2023-04-23T03:44:32;94139.78;;;4.60;100.00
11049;BME280;5577;42.706;23.160;2023-04-23T03:47:16;94145.81;;;4.60;100.00
11049;BME280;5577;42.706;23.160;2023-04-23T03:50:00;94138.69;;;4.44;100.00
11049;BME280;5577;42.706;23.160;2023-04-23T03:52:44;94145.66;;;4.57;100.00
11049;BME280;5577;42.706;23.160;2023-04-23T03:55:28;94139.47;;;4.61;100.00
11049;BME280;5577;42.706;23.160;2023-04-23T03:58:12;94147.66;;;4.68;100.00
11049;BME280;5577;42.706;23.160;2023-04-23T04:00:56;94147.66;;;4.68;100.00
11049;BME280;5577;42.706;23.160;2023-04-23T04:03:40;94152.44;;;4.66;100.00
11049;BME280;5577;42.706;23.160;2023-04-23T04:06:24;94149.34;;;4.73;100.00
11049;BME280;5577;42.706;23.160;2023-04-23T04:09:08;94158.63;;;4.79;100.00
11049;BME280;5577;42.706;23.160;2023-04-23T04:11:53;94161.53;;;4.86;100.00
11049;BME280;5577;42.706;23.160;2023-04-23T04:14:37;94162.91;;;5.00;100.00
11049;BME280;5577;42.706;23.160;2023-04-23T04:17:21;94144.25;;;5.02;100.00
11049;BME280;5577;42.706;23.160;2023-04-23T04:20:06;94160.44;;;5.21;100.00
11049;BME280;5577;42.706;23.160;2023-04-23T04:22:54;94156.84;;;5.34;100.00
11049;BME280;5577;42.706;23.160;2023-04-23T04:25:38;94161.63;;;5.49;100.00
11049;BME280;5577;42.706;23.160;2023-04-23T04:28:22;94165.75;;;5.58;100.00
11049;BME280;5577;42.706;23.160;2023-04-23T04:31:08;94169.59;;;5.69;100.00
11049;BME280;5577;42.706;23.160;2023-04-23T04:33:53;94170.34;;;5.87;100.00
11049;BME280;5577;42.706;23.160;2023-04-23T04:36:40;94167.63;;;6.04;100.00
11049;BME280;5577;42.706;23.160;2023-04-23T04:39:25;94175.94;;;6.15;100.00
11049;BME280;5577;42.706;23.160;2023-04-23T04:42:09;94176.81;;;6.27;100.00
11049;BME280;5577;42.706;23.160;2023-04-23T04:44:55;94178.50;;;6.32;100.00
11049;BME280;5577;42.706;23.160;2023-04-23T04:47:41;94178.50;;;6.32;100.00
11049;BME280;5577;42.706;23.160;2023-04-23T04:50:25;94181.84;;;6.41;100.00
11049;BME280;5577;42.706;23.160;2023-04-23T04:53:09;94186.59;;;6.47;100.00
11049;BME280;5577;42.706;23.160;2023-04-23T04:55:53;94146.94;;;6.32;100.00
11049;BME280;5577;42.706;23.160;2023-04-23T04:58:37;94184.94;;;6.63;100.00
11049;BME280;5577;42.706;23.160;2023-04-23T05:01:21;94172.31;;;6.77;100.00
11049;BME280;5577;42.706;23.160;2023-04-23T05:04:09;94183.03;;;6.93;100.00
11049;BME280;5577;42.706;23.160;2023-04-23T05:06:53;94181.88;;;7.02;100.00
11049;BME280;5577;42.706;23.160;2023-04-23T05:09:37;94179.00;;;7.16;100.00
11049;BME280;5577;42.706;23.160;2023-04-23T05:12:21;94186.34;;;7.43;100.00
11049;BME280;5577;42.706;23.160;2023-04-23T05:15:09;94183.66;;;7.63;100.00
11049;BME280;5577;42.706;23.160;2023-04-23T05:17:54;94182.47;;;7.73;100.00
11049;BME280;5577;42.706;23.160;2023-04-23T05:20:38;94178.88;;;7.89;100.00
11049;BME280;5577;42.706;23.160;2023-04-23T05:23:22;94177.13;;;7.93;100.00
11049;BME280;5577;42.706;23.160;2023-04-23T05:26:07;94191.31;;;8.01;100.00
11049;BME280;5577;42.706;23.160;2023-04-23T05:28:51;94180.66;;;7.97;100.00
11049;BME280;5577;42.706;23.160;2023-04-23T05:31:34;94184.50;;;8.00;100.00
11049;BME280;5577;42.706;23.160;2023-04-23T05:34:18;94198.13;;;7.90;100.00
11049;BME280;5577;42.706;23.160;2023-04-23T05:37:02;94199.53;;;7.87;100.00
11049;BME280;5577;42.706;23.160;2023-04-23T05:39:46;94153.03;;;7.59;100.00
11049;BME280;5577;42.706;23.160;2023-04-23T05:42:31;94191.50;;;7.84;100.00
11049;BME280;5577;42.706;23.160;2023-04-23T05:45:15;94201.50;;;7.90;100.00
11049;BME280;5577;42.706;23.160;2023-04-23T05:47:59;94179.31;;;7.79;100.00
11049;BME280;5577;42.706;23.160;2023-04-23T05:50:43;94197.28;;;8.10;100.00
11049;BME280;5577;42.706;23.160;2023-04-23T05:53:27;94200.25;;;8.20;100.00
11049;BME280;5577;42.706;23.160;2023-04-23T05:56:11;94201.81;;;8.33;100.00
11049;BME280;5577;42.706;23.160;2023-04-23T05:58:55;94200.16;;;8.41;100.00
11049;BME280;5577;42.706;23.160;2023-04-23T06:01:39;94201.69;;;8.54;100.00
11049;BME280;5577;42.706;23.160;2023-04-23T06:04:24;94182.78;;;8.64;100.00
11049;BME280;5577;42.706;23.160;2023-04-23T06:07:08;94194.84;;;8.89;100.00
11049;BME280;5577;42.706;23.160;2023-04-23T06:09:52;94195.59;;;9.02;100.00
11049;BME280;5577;42.706;23.160;2023-04-23T06:12:35;94200.66;;;8.95;100.00
11049;BME280;5577;42.706;23.160;2023-04-23T06:15:21;94194.59;;;9.06;100.00
11049;BME280;5577;42.706;23.160;2023-04-23T06:18:09;94191.94;;;9.06;100.00
11049;BME280;5577;42.706;23.160;2023-04-23T06:20:53;94185.56;;;9.07;100.00
11049;BME280;5577;42.706;23.160;2023-04-23T06:23:40;94201.94;;;9.25;100.00
11049;BME280;5577;42.706;23.160;2023-04-23T06:26:23;94193.63;;;9.38;100.00
11049;BME280;5577;42.706;23.160;2023-04-23T06:29:07;94184.97;;;9.53;100.00
11049;BME280;5577;42.706;23.160;2023-04-23T06:31:54;94188.22;;;9.62;100.00
11049;BME280;5577;42.706;23.160;2023-04-23T06:34:38;94188.16;;;9.74;100.00
11049;BME280;5577;42.706;23.160;2023-04-23T06:37:22;94175.28;;;9.73;100.00
11049;BME280;5577;42.706;23.160;2023-04-23T06:40:06;94189.91;;;9.98;100.00
11049;BME280;5577;42.706;23.160;2023-04-23T06:42:50;94175.25;;;10.00;100.00
11049;BME280;5577;42.706;23.160;2023-04-23T06:45:35;94175.31;;;10.04;100.00
11049;BME280;5577;42.706;23.160;2023-04-23T06:48:19;94181.66;;;10.30;100.00
11049;BME280;5577;42.706;23.160;2023-04-23T06:51:05;94181.25;;;10.59;100.00
11049;BME280;5577;42.706;23.160;2023-04-23T06:53:49;94181.66;;;10.61;100.00
11049;BME280;5577;42.706;23.160;2023-04-23T06:56:33;94186.84;;;10.73;100.00
11049;BME280;5577;42.706;23.160;2023-04-23T06:59:17;94173.06;;;10.83;100.00
11049;BME280;5577;42.706;23.160;2023-04-23T07:02:02;94175.47;;;11.07;100.00
11049;BME280;5577;42.706;23.160;2023-04-23T07:04:46;94172.75;;;11.23;100.00
11049;BME280;5577;42.706;23.160;2023-04-23T07:07:30;94172.66;;;11.35;100.00
11049;BME280;5577;42.706;23.160;2023-04-23T07:10:15;94176.66;;;11.48;100.00
11049;BME280;5577;42.706;23.160;2023-04-23T07:12:59;94174.88;;;11.71;100.00
11049;BME280;5577;42.706;23.160;2023-04-23T07:15:43;94166.53;;;11.92;100.00
11049;BME280;5577;42.706;23.160;2023-04-23T07:18:28;94172.63;;;12.15;100.00
11049;BME280;5577;42.706;23.160;2023-04-23T07:21:11;94177.63;;;12.42;100.00
11049;BME280;5577;42.706;23.160;2023-04-23T07:23:56;94169.66;;;12.42;100.00
11049;BME280;5577;42.706;23.160;2023-04-23T07:26:42;94166.63;;;12.66;100.00
11049;BME280;5577;42.706;23.160;2023-04-23T07:29:26;94170.50;;;12.72;100.00
11049;BME280;5577;42.706;23.160;2023-04-23T07:32:10;94166.09;;;12.83;100.00
11049;BME280;5577;42.706;23.160;2023-04-23T07:34:54;94173.28;;;13.05;100.00
11049;BME280;5577;42.706;23.160;2023-04-23T07:37:41;94164.53;;;13.34;100.00
11049;BME280;5577;42.706;23.160;2023-04-23T07:40:25;94167.50;;;13.29;100.00
11049;BME280;5577;42.706;23.160;2023-04-23T07:43:09;94161.56;;;13.39;100.00
11049;BME280;5577;42.706;23.160;2023-04-23T07:45:54;94161.19;;;13.41;100.00
11049;BME280;5577;42.706;23.160;2023-04-23T07:48:38;94146.72;;;13.38;100.00
11049;BME280;5577;42.706;23.160;2023-04-23T07:51:21;94160.06;;;13.42;100.00
11049;BME280;5577;42.706;23.160;2023-04-23T07:54:09;94152.97;;;13.53;100.00
11049;BME280;5577;42.706;23.160;2023-04-23T07:56:53;94158.72;;;13.55;100.00
11049;BME280;5577;42.706;23.160;2023-04-23T07:59:37;94157.03;;;13.76;100.00
11049;BME280;5577;42.706;23.160;2023-04-23T08:02:24;94162.06;;;13.85;100.00
11049;BME280;5577;42.706;23.160;2023-04-23T08:05:10;94166.00;;;13.98;100.00
11049;BME280;5577;42.706;23.160;2023-04-23T08:07:54;94160.66;;;14.34;100.00
11049;BME280;5577;42.706;23.160;2023-04-23T08:10:38;94085.91;;;13.73;100.00
11049;BME280;5577;42.706;23.160;2023-04-23T08:13:23;94169.75;;;14.30;100.00
11049;BME280;5577;42.706;23.160;2023-04-23T08:16:07;94157.28;;;14.41;100.00
11049;BME280;5577;42.706;23.160;2023-04-23T08:18:51;94161.25;;;14.65;100.00
11049;BME280;5577;42.706;23.160;2023-04-23T08:21:35;94158.59;;;14.61;100.00
11049;BME280;5577;42.706;23.160;2023-04-23T08:24:19;94127.00;;;14.60;100.00
11049;BME280;5577;42.706;23.160;2023-04-23T08:27:03;94154.63;;;14.95;100.00
11049;BME280;5577;42.706;23.160;2023-04-23T08:29:46;94147.09;;;15.08;100.00
11049;BME280;5577;42.706;23.160;2023-04-23T08:32:30;94146.38;;;15.18;100.00
11049;BME280;5577;42.706;23.160;2023-04-23T08:35:14;94136.63;;;15.46;100.00
11049;BME280;5577;42.706;23.160;2023-04-23T08:37:58;94147.00;;;15.69;100.00
11049;BME280;5577;42.706;23.160;2023-04-23T08:40:44;94135.88;;;15.53;100.00
11049;BME280;5577;42.706;23.160;2023-04-23T08:43:37;94132.19;;;16.06;100.00
11049;BME280;5577;42.706;23.160;2023-04-23T08:46:30;94139.16;;;16.56;95.13
11049;BME280;5577;42.706;23.160;2023-04-23T08:49:16;94123.81;;;16.92;86.63
11049;BME280;5577;42.706;23.160;2023-04-23T08:52:14;94125.78;;;16.56;96.54
11049;BME280;5577;42.706;23.160;2023-04-23T08:55:00;94100.19;;;16.73;89.18
11049;BME280;5577;42.706;23.160;2023-04-23T08:57:45;94117.66;;;17.12;85.00
11049;BME280;5577;42.706;23.160;2023-04-23T09:00:29;94125.56;;;17.55;79.51
11049;BME280;5577;42.706;23.160;2023-04-23T09:03:15;94123.63;;;17.66;73.79
11049;BME280;5577;42.706;23.160;2023-04-23T09:05:59;94127.06;;;17.63;68.05
11049;BME280;5577;42.706;23.160;2023-04-23T09:08:44;94127.84;;;17.56;71.63
11049;BME280;5577;42.706;23.160;2023-04-23T09:11:29;94118.41;;;18.06;69.75
11049;BME280;5577;42.706;23.160;2023-04-23T09:14:14;94116.63;;;17.82;69.22
11049;BME280;5577;42.706;23.160;2023-04-23T09:16:59;94118.75;;;17.43;71.06
11049;BME280;5577;42.706;23.160;2023-04-23T09:19:44;94122.41;;;17.74;72.37
11049;BME280;5577;42.706;23.160;2023-04-23T09:25:23;94119.97;;;19.39;63.79
11049;BME280;5577;42.706;23.160;2023-04-23T09:28:08;94056.22;;;18.73;65.75
11049;BME280;5577;42.706;23.160;2023-04-23T09:30:53;94105.88;;;19.28;63.61
11049;BME280;5577;42.706;23.160;2023-04-23T09:33:38;94106.22;;;19.94;60.93
11049;BME280;5577;42.706;23.160;2023-04-23T09:36:22;94109.53;;;20.32;56.20
11049;BME280;5577;42.706;23.160;2023-04-23T09:39:14;94104.13;;;19.48;56.92
11049;BME280;5577;42.706;23.160;2023-04-23T09:42:03;94101.84;;;18.22;58.99
11049;BME280;5577;42.706;23.160;2023-04-23T09:44:55;94090.56;;;17.90;58.89
11049;BME280;5577;42.706;23.160;2023-04-23T09:47:47;94088.00;;;18.78;58.88
11049;BME280;5577;42.706;23.160;2023-04-23T09:50:36;94096.31;;;18.50;59.88
11049;BME280;5577;42.706;23.160;2023-04-23T09:53:21;94080.00;;;19.08;56.74
11049;BME280;5577;42.706;23.160;2023-04-23T09:56:06;94083.97;;;19.33;56.28
11049;BME280;5577;42.706;23.160;2023-04-23T09:58:49;94083.75;;;19.51;56.07
11049;BME280;5577;42.706;23.160;2023-04-23T10:01:33;94083.25;;;19.29;57.39
11049;BME280;5577;42.706;23.160;2023-04-23T10:04:22;94080.59;;;19.26;57.38
11049;BME280;5577;42.706;23.160;2023-04-23T10:07:07;94078.03;;;19.15;55.18
11049;BME280;5577;42.706;23.160;2023-04-23T10:09:51;94070.44;;;19.70;54.82
11049;BME280;5577;42.706;23.160;2023-04-23T10:12:35;94055.91;;;20.67;53.55
11049;BME280;5577;42.706;23.160;2023-04-23T10:15:19;94030.88;;;21.52;48.62
11049;BME280;5577;42.706;23.160;2023-04-23T10:18:04;94021.69;;;21.49;48.66
11049;BME280;5577;42.706;23.160;2023-04-23T10:20:51;94045.34;;;22.45;44.89
11049;BME280;5577;42.706;23.160;2023-04-23T10:23:37;94047.41;;;21.70;46.34
11049;BME280;5577;42.706;23.160;2023-04-23T10:26:24;94041.53;;;21.94;45.96
11049;BME280;5577;42.706;23.160;2023-04-23T10:29:13;94046.91;;;22.75;43.43
11049;BME280;5577;42.706;23.160;2023-04-23T10:32:01;94036.22;;;24.57;39.33
11049;BME280;5577;42.706;23.160;2023-04-23T10:34:45;94034.06;;;25.85;37.47
11049;BME280;5577;42.706;23.160;2023-04-23T10:37:31;94032.94;;;27.01;35.57
11049;BME280;5577;42.706;23.160;2023-04-23T10:40:20;94024.44;;;26.14;35.42
11049;BME280;5577;42.706;23.160;2023-04-23T10:43:07;94008.13;;;26.54;35.75
11049;BME280;5577;42.706;23.160;2023-04-23T10:45:52;94009.66;;;25.54;35.78
11049;BME280;5577;42.706;23.160;2023-04-23T10:49:07;94004.38;;;26.78;34.10
11049;BME280;5577;42.706;23.160;2023-04-23T10:52:09;94004.19;;;26.55;34.49
11049;BME280;5577;42.706;23.160;2023-04-23T10:54:57;93985.97;;;27.96;32.91
11049;BME280;5577;42.706;23.160;2023-04-23T11:09:42;93981.47;;;28.58;27.26
11049;BME280;5577;42.706;23.160;2023-04-23T11:15:14;93980.94;;;28.13;27.04
11049;BME280;5577;42.706;23.160;2023-04-23T11:17:59;93968.63;;;29.49;26.40
11049;BME280;5577;42.706;23.160;2023-04-23T11:20:46;93958.22;;;30.46;26.24
11049;BME280;5577;42.706;23.160;2023-04-23T11:23:33;93963.50;;;29.13;25.45
11049;BME280;5577;42.706;23.160;2023-04-23T11:26:17;93959.19;;;29.50;24.71
11049;BME280;5577;42.706;23.160;2023-04-23T11:29:02;93960.97;;;29.97;23.85
11049;BME280;5577;42.706;23.160;2023-04-23T11:31:47;93966.88;;;30.25;22.65
11049;BME280;5577;42.706;23.160;2023-04-23T11:34:31;93954.91;;;30.97;22.74
11049;BME280;5577;42.706;23.160;2023-04-23T11:37:17;93953.22;;;31.76;23.33
11049;BME280;5577;42.706;23.160;2023-04-23T11:40:06;93949.03;;;31.04;23.98
11049;BME280;5577;42.706;23.160;2023-04-23T11:42:53;93955.69;;;29.21;24.18
11049;BME280;5577;42.706;23.160;2023-04-23T11:45:38;93947.63;;;29.26;24.54
11049;BME280;5577;42.706;23.160;2023-04-23T11:48:22;93946.00;;;29.05;24.40
11049;BME280;5577;42.706;23.160;2023-04-23T11:51:06;93943.03;;;30.80;22.98
11049;BME280;5577;42.706;23.160;2023-04-23T11:53:51;93949.53;;;32.46;21.33
11049;BME280;5577;42.706;23.160;2023-04-23T11:56:35;93905.50;;;33.53;20.06
11049;BME280;5577;42.706;23.160;2023-04-23T11:59:20;93944.47;;;31.72;20.41
11049;BME280;5577;42.706;23.160;2023-04-23T12:02:05;93944.94;;;30.54;20.56
11049;BME280;5577;42.706;23.160;2023-04-23T12:04:50;93941.28;;;31.48;21.46
11049;BME280;5577;42.706;23.160;2023-04-23T12:07:34;93939.16;;;27.41;25.42
11049;BME280;5577;42.706;23.160;2023-04-23T12:10:19;93935.66;;;25.23;27.62
11049;BME280;5577;42.706;23.160;2023-04-23T12:13:04;93938.56;;;23.92;29.96
11049;BME280;5577;42.706;23.160;2023-04-23T12:15:50;93938.41;;;22.67;31.11
11049;BME280;5577;42.706;23.160;2023-04-23T12:18:39;93930.44;;;22.48;31.83
11049;BME280;5577;42.706;23.160;2023-04-23T12:21:25;93863.94;;;22.12;31.79
11049;BME280;5577;42.706;23.160;2023-04-23T12:24:11;93919.84;;;21.60;32.60
11049;BME280;5577;42.706;23.160;2023-04-23T12:26:57;93935.59;;;20.71;33.67
11049;BME280;5577;42.706;23.160;2023-04-23T12:29:44;93863.00;;;19.86;32.43
11049;BME280;5577;42.706;23.160;2023-04-23T12:32:32;93930.75;;;20.20;33.01
11049;BME280;5577;42.706;23.160;2023-04-23T12:35:16;93918.97;;;20.14;34.23
11049;BME280;5577;42.706;23.160;2023-04-23T12:38:04;93923.19;;;20.15;34.54
11049;BME280;5577;42.706;23.160;2023-04-23T12:40:48;93902.41;;;19.69;33.96
11049;BME280;5577;42.706;23.160;2023-04-23T12:43:32;93920.00;;;19.74;33.59
11049;BME280;5577;42.706;23.160;2023-04-23T12:46:16;93929.88;;;19.54;33.61
11049;BME280;5577;42.706;23.160;2023-04-23T12:49:00;93915.50;;;19.67;33.12
11049;BME280;5577;42.706;23.160;2023-04-23T12:51:43;93922.97;;;19.79;32.76
11049;BME280;5577;42.706;23.160;2023-04-23T12:54:30;93917.50;;;19.87;30.53
11049;BME280;5577;42.706;23.160;2023-04-23T12:57:14;93919.78;;;19.88;29.85
11049;BME280;5577;42.706;23.160;2023-04-23T12:59:58;93911.72;;;20.11;30.60
11049;BME280;5577;42.706;23.160;2023-04-23T13:02:42;93912.00;;;21.34;29.18
11049;BME280;5577;42.706;23.160;2023-04-23T13:05:26;93901.31;;;23.50;27.76
11049;BME280;5577;42.706;23.160;2023-04-23T13:08:10;93889.22;;;25.64;25.88
11049;BME280;5577;42.706;23.160;2023-04-23T13:10:54;93885.94;;;29.14;23.04
11049;BME280;5577;42.706;23.160;2023-04-23T13:13:38;93892.81;;;29.10;23.18
11049;BME280;5577;42.706;23.160;2023-04-23T13:16:22;93873.56;;;32.05;19.84
11049;BME280;5577;42.706;23.160;2023-04-23T13:19:07;93876.56;;;33.41;19.67
11049;BME280;5577;42.706;23.160;2023-04-23T13:21:51;93886.78;;;34.06;18.01
11049;BME280;5577;42.706;23.160;2023-04-23T13:24:36;93879.06;;;33.83;17.40
11049;BME280;5577;42.706;23.160;2023-04-23T13:27:20;93782.28;;;31.09;19.13
11049;BME280;5577;42.706;23.160;2023-04-23T13:30:05;93881.75;;;31.99;18.25
11049;BME280;5577;42.706;23.160;2023-04-23T13:32:49;93870.25;;;30.22;19.84
11049;BME280;5577;42.706;23.160;2023-04-23T13:35:34;93877.44;;;27.98;22.18
11049;BME280;5577;42.706;23.160;2023-04-23T13:38:20;93877.69;;;27.35;22.42
11049;BME280;5577;42.706;23.160;2023-04-23T13:41:04;93867.91;;;29.31;21.88
11049;BME280;5577;42.706;23.160;2023-04-23T13:43:47;93875.78;;;31.39;18.74
11049;BME280;5577;42.706;23.160;2023-04-23T13:46:31;93873.16;;;30.73;20.43
11049;BME280;5577;42.706;23.160;2023-04-23T13:49:15;93869.19;;;29.50;21.42
11049;BME280;5577;42.706;23.160;2023-04-23T13:51:59;93871.72;;;27.13;25.00
11049;BME280;5577;42.706;23.160;2023-04-23T13:54:46;93872.06;;;26.79;24.12
11049;BME280;5577;42.706;23.160;2023-04-23T13:57:32;93850.28;;;29.61;22.25
11049;BME280;5577;42.706;23.160;2023-04-23T14:00:16;93867.81;;;26.06;25.44
11049;BME280;5577;42.706;23.160;2023-04-23T14:03:00;93858.97;;;22.68;27.70
11049;BME280;5577;42.706;23.160;2023-04-23T14:05:44;93868.84;;;21.69;30.22
11049;BME280;5577;42.706;23.160;2023-04-23T14:08:28;93873.97;;;20.77;31.98
11049;BME280;5577;42.706;23.160;2023-04-23T14:11:12;93871.03;;;20.52;32.98
11049;BME280;5577;42.706;23.160;2023-04-23T14:13:56;93865.66;;;20.52;33.73
11049;BME280;5577;42.706;23.160;2023-04-23T14:16:41;93856.03;;;20.12;34.08
11049;BME280;5577;42.706;23.160;2023-04-23T14:19:25;93837.78;;;19.57;34.36
11049;BME280;5577;42.706;23.160;2023-04-23T14:22:08;93857.78;;;19.03;34.58
11049;BME280;5577;42.706;23.160;2023-04-23T14:25:23;93860.31;;;19.40;35.20
11049;BME280;5577;42.706;23.160;2023-04-23T14:31:10;93866.94;;;20.63;33.50
11049;BME280;5577;42.706;23.160;2023-04-23T14:33:54;93855.72;;;20.29;34.47
11049;BME280;5577;42.706;23.160;2023-04-23T14:36:41;93847.34;;;19.58;35.15
11049;BME280;5577;42.706;23.160;2023-04-23T14:39:25;93852.47;;;19.26;36.04
11049;BME280;5577;42.706;23.160;2023-04-23T14:42:09;93836.13;;;18.90;36.27
11049;BME280;5577;42.706;23.160;2023-04-23T14:44:53;93859.28;;;18.77;36.69
11049;BME280;5577;42.706;23.160;2023-04-23T14:47:41;93823.84;;;18.63;37.02
11049;BME280;5577;42.706;23.160;2023-04-23T14:50:30;93851.81;;;18.62;37.42
11049;BME280;5577;42.706;23.160;2023-04-23T14:53:14;93854.72;;;18.74;37.29